sensor_id;sensor_type;location;lat;lon;timestamp;P1;durP1;ratioP1;P2;durP2;ratioP2
41546;SDS011;27271;45.412;10.852;2022-07-04T00:04:49;6.28;;;4.47;;
41546;SDS011;27271;45.412;10.852;2022-07-04T00:08:21;7.97;;;4.75;;
41546;SDS011;27271;45.412;10.852;2022-07-04T00:11:58;4.95;;;4.10;;
41546;SDS011;27271;45.412;10.852;2022-07-04T00:15:39;6.85;;;4.35;;
41546;SDS011;27271;45.412;10.852;2022-07-04T00:19:12;9.65;;;5.07;;
41546;SDS011;27271;45.412;10.852;2022-07-04T00:22:40;8.32;;;4.25;;
41546;SDS011;27271;45.412;10.852;2022-07-04T00:26:17;7.38;;;4.93;;
41546;SDS011;27271;45.412;10.852;2022-07-04T00:29:56;5.60;;;4.63;;
41546;SDS011;27271;45.412;10.852;2022-07-04T00:33:27;4.72;;;4.22;;
41546;SDS011;27271;45.412;10.852;2022-07-04T00:37:02;7.43;;;4.88;;
41546;SDS011;27271;45.412;10.852;2022-07-04T00:40:46;9.60;;;5.03;;
41546;SDS011;27271;45.412;10.852;2022-07-04T00:44:40;8.25;;;4.80;;
41546;SDS011;27271;45.412;10.852;2022-07-04T00:48:13;10.98;;;4.53;;
41546;SDS011;27271;45.412;10.852;2022-07-04T00:51:52;7.13;;;4.13;;
41546;SDS011;27271;45.412;10.852;2022-07-04T00:55:32;8.30;;;4.07;;
41546;SDS011;27271;45.412;10.852;2022-07-04T00:59:13;6.72;;;4.78;;
41546;SDS011;27271;45.412;10.852;2022-07-04T01:02:41;5.05;;;4.05;;
41546;SDS011;27271;45.412;10.852;2022-07-04T01:06:19;13.65;;;5.25;;
41546;SDS011;27271;45.412;10.852;2022-07-04T01:10:05;7.38;;;4.07;;
41546;SDS011;27271;45.412;10.852;2022-07-04T01:13:37;5.75;;;4.35;;
41546;SDS011;27271;45.412;10.852;2022-07-04T01:17:01;5.70;;;4.03;;
41546;SDS011;27271;45.412;10.852;2022-07-04T01:20:34;6.57;;;4.60;;
41546;SDS011;27271;45.412;10.852;2022-07-04T01:24:06;7.93;;;4.45;;
41546;SDS011;27271;45.412;10.852;2022-07-04T01:27:42;7.43;;;4.18;;
41546;SDS011;27271;45.412;10.852;2022-07-04T01:31:04;7.35;;;4.20;;
41546;SDS011;27271;45.412;10.852;2022-07-04T01:34:27;6.30;;;4.50;;
41546;SDS011;27271;45.412;10.852;2022-07-04T01:37:54;7.30;;;4.68;;
41546;SDS011;27271;45.412;10.852;2022-07-04T01:41:21;7.35;;;4.35;;
41546;SDS011;27271;45.412;10.852;2022-07-04T01:44:50;5.72;;;4.07;;
41546;SDS011;27271;45.412;10.852;2022-07-04T01:48:20;6.93;;;4.88;;
41546;SDS011;27271;45.412;10.852;2022-07-04T01:51:43;8.80;;;5.07;;
41546;SDS011;27271;45.412;10.852;2022-07-04T01:58:56;7.40;;;4.75;;
41546;SDS011;27271;45.412;10.852;2022-07-04T02:02:24;5.25;;;4.30;;
41546;SDS011;27271;45.412;10.852;2022-07-04T02:05:59;7.80;;;5.00;;
41546;SDS011;27271;45.412;10.852;2022-07-04T02:13:42;7.65;;;4.85;;
41546;SDS011;27271;45.412;10.852;2022-07-04T02:17:11;7.18;;;4.55;;
41546;SDS011;27271;45.412;10.852;2022-07-04T02:20:49;9.15;;;5.70;;
41546;SDS011;27271;45.412;10.852;2022-07-04T02:24:11;6.75;;;4.90;;
41546;SDS011;27271;45.412;10.852;2022-07-04T02:27:33;10.00;;;5.50;;
41546;SDS011;27271;45.412;10.852;2022-07-04T02:30:56;7.82;;;5.50;;
41546;SDS011;27271;45.412;10.852;2022-07-04T02:34:35;8.70;;;5.90;;
41546;SDS011;27271;45.412;10.852;2022-07-04T02:41:48;9.43;;;6.25;;
41546;SDS011;27271;45.412;10.852;2022-07-04T02:45:20;7.85;;;5.28;;
41546;SDS011;27271;45.412;10.852;2022-07-04T02:48:47;5.97;;;4.93;;
41546;SDS011;27271;45.412;10.852;2022-07-04T02:52:47;7.82;;;5.60;;
41546;SDS011;27271;45.412;10.852;2022-07-04T03:00:17;8.30;;;5.88;;
41546;SDS011;27271;45.412;10.852;2022-07-04T03:03:55;8.63;;;5.60;;
41546;SDS011;27271;45.412;10.852;2022-07-04T03:07:46;6.80;;;5.78;;
41546;SDS011;27271;45.412;10.852;2022-07-04T03:11:11;8.88;;;5.30;;
41546;SDS011;27271;45.412;10.852;2022-07-04T03:14:37;7.90;;;5.15;;
41546;SDS011;27271;45.412;10.852;2022-07-04T03:18:04;7.35;;;5.25;;
41546;SDS011;27271;45.412;10.852;2022-07-04T03:21:33;7.10;;;5.28;;
41546;SDS011;27271;45.412;10.852;2022-07-04T03:25:00;11.18;;;5.43;;
41546;SDS011;27271;45.412;10.852;2022-07-04T03:28:41;6.60;;;5.30;;
41546;SDS011;27271;45.412;10.852;2022-07-04T03:32:09;6.78;;;5.35;;
41546;SDS011;27271;45.412;10.852;2022-07-04T03:35:31;9.18;;;5.55;;
41546;SDS011;27271;45.412;10.852;2022-07-04T03:39:00;6.78;;;5.20;;
41546;SDS011;27271;45.412;10.852;2022-07-04T03:42:37;8.18;;;5.53;;
41546;SDS011;27271;45.412;10.852;2022-07-04T03:46:15;7.75;;;5.15;;
41546;SDS011;27271;45.412;10.852;2022-07-04T03:49:59;6.32;;;4.78;;
41546;SDS011;27271;45.412;10.852;2022-07-04T03:53:56;7.43;;;5.60;;
41546;SDS011;27271;45.412;10.852;2022-07-04T03:57:44;8.68;;;5.78;;
41546;SDS011;27271;45.412;10.852;2022-07-04T04:01:22;9.77;;;5.53;;
41546;SDS011;27271;45.412;10.852;2022-07-04T04:04:55;7.93;;;5.75;;
41546;SDS011;27271;45.412;10.852;2022-07-04T04:08:39;12.10;;;5.70;;
41546;SDS011;27271;45.412;10.852;2022-07-04T04:12:13;11.43;;;5.57;;
41546;SDS011;27271;45.412;10.852;2022-07-04T04:15:38;11.27;;;5.72;;
41546;SDS011;27271;45.412;10.852;2022-07-04T04:19:17;9.00;;;5.53;;
41546;SDS011;27271;45.412;10.852;2022-07-04T04:23:02;8.68;;;5.65;;
41546;SDS011;27271;45.412;10.852;2022-07-04T04:27:06;10.10;;;5.35;;
41546;SDS011;27271;45.412;10.852;2022-07-04T04:30:35;8.10;;;5.38;;
41546;SDS011;27271;45.412;10.852;2022-07-04T04:34:16;7.18;;;5.45;;
41546;SDS011;27271;45.412;10.852;2022-07-04T04:38:24;7.93;;;4.57;;
41546;SDS011;27271;45.412;10.852;2022-07-04T04:43:00;6.60;;;4.13;;
41546;SDS011;27271;45.412;10.852;2022-07-04T04:46:45;6.00;;;4.15;;
41546;SDS011;27271;45.412;10.852;2022-07-04T04:54:41;7.43;;;3.85;;
41546;SDS011;27271;45.412;10.852;2022-07-04T04:58:17;4.07;;;3.22;;
41546;SDS011;27271;45.412;10.852;2022-07-04T05:01:57;6.80;;;3.67;;
41546;SDS011;27271;45.412;10.852;2022-07-04T05:05:21;4.63;;;3.15;;
41546;SDS011;27271;45.412;10.852;2022-07-04T05:09:31;4.68;;;3.22;;
41546;SDS011;27271;45.412;10.852;2022-07-04T05:20:35;4.35;;;3.38;;
41546;SDS011;27271;45.412;10.852;2022-07-04T05:24:28;5.13;;;3.28;;
41546;SDS011;27271;45.412;10.852;2022-07-04T05:28:09;6.20;;;3.78;;
41546;SDS011;27271;45.412;10.852;2022-07-04T05:31:42;5.63;;;3.00;;
41546;SDS011;27271;45.412;10.852;2022-07-04T05:35:21;11.02;;;3.47;;
41546;SDS011;27271;45.412;10.852;2022-07-04T05:38:50;3.63;;;3.30;;
41546;SDS011;27271;45.412;10.852;2022-07-04T05:42:41;5.88;;;3.55;;
41546;SDS011;27271;45.412;10.852;2022-07-04T05:46:38;3.88;;;2.85;;
41546;SDS011;27271;45.412;10.852;2022-07-04T05:50:20;5.32;;;2.97;;
41546;SDS011;27271;45.412;10.852;2022-07-04T05:58:31;3.63;;;2.95;;
41546;SDS011;27271;45.412;10.852;2022-07-04T06:02:44;3.85;;;2.92;;
41546;SDS011;27271;45.412;10.852;2022-07-04T06:12:02;3.15;;;2.50;;
41546;SDS011;27271;45.412;10.852;2022-07-04T06:16:51;3.38;;;3.17;;
41546;SDS011;27271;45.412;10.852;2022-07-04T06:30:12;3.97;;;2.88;;
41546;SDS011;27271;45.412;10.852;2022-07-04T06:44:07;3.88;;;3.13;;
41546;SDS011;27271;45.412;10.852;2022-07-04T06:57:32;7.45;;;3.40;;
41546;SDS011;27271;45.412;10.852;2022-07-04T07:01:22;7.93;;;3.20;;
41546;SDS011;27271;45.412;10.852;2022-07-04T07:05:37;5.85;;;3.35;;
41546;SDS011;27271;45.412;10.852;2022-07-04T07:09:46;4.57;;;3.30;;
41546;SDS011;27271;45.412;10.852;2022-07-04T07:33:03;3.55;;;2.92;;
41546;SDS011;27271;45.412;10.852;2022-07-04T07:47:11;3.63;;;2.85;;
41546;SDS011;27271;45.412;10.852;2022-07-04T07:50:58;5.03;;;2.17;;
41546;SDS011;27271;45.412;10.852;2022-07-04T07:54:56;2.65;;;2.38;;
41546;SDS011;27271;45.412;10.852;2022-07-04T07:58:23;2.67;;;2.03;;
41546;SDS011;27271;45.412;10.852;2022-07-04T08:01:52;2.47;;;2.25;;
41546;SDS011;27271;45.412;10.852;2022-07-04T08:05:38;3.20;;;2.15;;
41546;SDS011;27271;45.412;10.852;2022-07-04T08:09:51;3.47;;;2.38;;
41546;SDS011;27271;45.412;10.852;2022-07-04T08:32:36;3.33;;;2.83;;
41546;SDS011;27271;45.412;10.852;2022-07-04T08:36:20;2.83;;;2.38;;
41546;SDS011;27271;45.412;10.852;2022-07-04T08:40:15;3.70;;;2.70;;
41546;SDS011;27271;45.412;10.852;2022-07-04T08:43:54;2.78;;;2.58;;
41546;SDS011;27271;45.412;10.852;2022-07-04T09:00:53;4.75;;;2.40;;
41546;SDS011;27271;45.412;10.852;2022-07-04T09:05:06;3.00;;;2.45;;
41546;SDS011;27271;45.412;10.852;2022-07-04T09:08:40;3.80;;;2.38;;
41546;SDS011;27271;45.412;10.852;2022-07-04T09:12:18;6.95;;;2.80;;
41546;SDS011;27271;45.412;10.852;2022-07-04T09:16:34;3.67;;;2.58;;
41546;SDS011;27271;45.412;10.852;2022-07-04T09:23:42;3.95;;;2.67;;
41546;SDS011;27271;45.412;10.852;2022-07-04T09:28:02;8.50;;;3.20;;
41546;SDS011;27271;45.412;10.852;2022-07-04T09:31:32;4.10;;;3.50;;
41546;SDS011;27271;45.412;10.852;2022-07-04T09:39:24;3.65;;;3.22;;
41546;SDS011;27271;45.412;10.852;2022-07-04T09:43:10;5.68;;;3.30;;
41546;SDS011;27271;45.412;10.852;2022-07-04T09:46:33;6.45;;;3.30;;
41546;SDS011;27271;45.412;10.852;2022-07-04T09:50:00;4.32;;;3.08;;
41546;SDS011;27271;45.412;10.852;2022-07-04T09:53:30;5.25;;;3.20;;
41546;SDS011;27271;45.412;10.852;2022-07-04T09:57:35;3.80;;;3.28;;
41546;SDS011;27271;45.412;10.852;2022-07-04T10:01:36;4.45;;;2.78;;
41546;SDS011;27271;45.412;10.852;2022-07-04T10:06:30;3.38;;;2.60;;
41546;SDS011;27271;45.412;10.852;2022-07-04T10:14:31;3.55;;;3.10;;
41546;SDS011;27271;45.412;10.852;2022-07-04T10:18:00;6.60;;;3.63;;
41546;SDS011;27271;45.412;10.852;2022-07-04T10:42:08;4.75;;;2.83;;
41546;SDS011;27271;45.412;10.852;2022-07-04T10:51:22;5.18;;;3.05;;
41546;SDS011;27271;45.412;10.852;2022-07-04T10:59:10;3.78;;;2.72;;
41546;SDS011;27271;45.412;10.852;2022-07-04T11:03:22;8.40;;;3.13;;
41546;SDS011;27271;45.412;10.852;2022-07-04T11:06:49;5.30;;;2.97;;
41546;SDS011;27271;45.412;10.852;2022-07-04T11:10:45;3.08;;;2.88;;
41546;SDS011;27271;45.412;10.852;2022-07-04T11:14:47;3.25;;;2.85;;
41546;SDS011;27271;45.412;10.852;2022-07-04T11:18:38;3.97;;;3.08;;
41546;SDS011;27271;45.412;10.852;2022-07-04T11:26:41;2.58;;;2.38;;
41546;SDS011;27271;45.412;10.852;2022-07-04T11:30:10;2.65;;;2.42;;
41546;SDS011;27271;45.412;10.852;2022-07-04T11:34:34;4.68;;;2.60;;
41546;SDS011;27271;45.412;10.852;2022-07-04T11:44:10;3.22;;;2.45;;
41546;SDS011;27271;45.412;10.852;2022-07-04T11:48:21;3.10;;;2.80;;
41546;SDS011;27271;45.412;10.852;2022-07-04T11:52:39;3.10;;;2.45;;
41546;SDS011;27271;45.412;10.852;2022-07-04T11:56:39;3.88;;;2.60;;
41546;SDS011;27271;45.412;10.852;2022-07-04T12:00:28;2.92;;;2.63;;
41546;SDS011;27271;45.412;10.852;2022-07-04T12:08:22;2.60;;;2.40;;
41546;SDS011;27271;45.412;10.852;2022-07-04T12:12:03;2.92;;;2.65;;
41546;SDS011;27271;45.412;10.852;2022-07-04T12:15:40;3.28;;;2.30;;
41546;SDS011;27271;45.412;10.852;2022-07-04T12:19:18;4.40;;;3.17;;
41546;SDS011;27271;45.412;10.852;2022-07-04T12:31:55;2.80;;;2.60;;
41546;SDS011;27271;45.412;10.852;2022-07-04T12:35:36;5.00;;;2.63;;
41546;SDS011;27271;45.412;10.852;2022-07-04T12:39:31;3.40;;;2.50;;
41546;SDS011;27271;45.412;10.852;2022-07-04T12:43:00;3.70;;;2.75;;
41546;SDS011;27271;45.412;10.852;2022-07-04T12:46:32;3.70;;;2.70;;
41546;SDS011;27271;45.412;10.852;2022-07-04T12:50:29;5.22;;;3.00;;
41546;SDS011;27271;45.412;10.852;2022-07-04T12:53:58;4.88;;;3.28;;
41546;SDS011;27271;45.412;10.852;2022-07-04T12:58:16;3.53;;;3.15;;
41546;SDS011;27271;45.412;10.852;2022-07-04T13:02:07;3.38;;;2.78;;
41546;SDS011;27271;45.412;10.852;2022-07-04T13:05:33;3.08;;;2.78;;
41546;SDS011;27271;45.412;10.852;2022-07-04T13:08:59;3.38;;;2.67;;
41546;SDS011;27271;45.412;10.852;2022-07-04T13:12:22;4.68;;;3.10;;
41546;SDS011;27271;45.412;10.852;2022-07-04T13:15:50;3.97;;;3.08;;
41546;SDS011;27271;45.412;10.852;2022-07-04T13:19:17;3.28;;;2.60;;
41546;SDS011;27271;45.412;10.852;2022-07-04T13:23:06;4.70;;;3.20;;
41546;SDS011;27271;45.412;10.852;2022-07-04T13:26:43;3.55;;;3.08;;
41546;SDS011;27271;45.412;10.852;2022-07-04T13:30:10;3.55;;;2.53;;
41546;SDS011;27271;45.412;10.852;2022-07-04T13:33:47;3.80;;;3.00;;
41546;SDS011;27271;45.412;10.852;2022-07-04T13:37:20;3.85;;;3.17;;
41546;SDS011;27271;45.412;10.852;2022-07-04T13:41:21;5.60;;;3.00;;
41546;SDS011;27271;45.412;10.852;2022-07-04T13:44:49;2.72;;;2.53;;
41546;SDS011;27271;45.412;10.852;2022-07-04T13:48:30;3.47;;;2.70;;
41546;SDS011;27271;45.412;10.852;2022-07-04T13:51:57;3.40;;;2.75;;
41546;SDS011;27271;45.412;10.852;2022-07-04T13:55:34;3.20;;;2.60;;
41546;SDS011;27271;45.412;10.852;2022-07-04T13:59:04;4.57;;;2.97;;
41546;SDS011;27271;45.412;10.852;2022-07-04T14:02:39;4.97;;;3.45;;
41546;SDS011;27271;45.412;10.852;2022-07-04T14:06:23;4.93;;;2.67;;
41546;SDS011;27271;45.412;10.852;2022-07-04T14:10:09;3.80;;;2.63;;
41546;SDS011;27271;45.412;10.852;2022-07-04T14:13:37;2.65;;;2.45;;
41546;SDS011;27271;45.412;10.852;2022-07-04T14:17:14;4.95;;;3.08;;
41546;SDS011;27271;45.412;10.852;2022-07-04T14:21:06;4.72;;;2.10;;
41546;SDS011;27271;45.412;10.852;2022-07-04T14:24:38;3.95;;;2.58;;
41546;SDS011;27271;45.412;10.852;2022-07-04T14:28:13;3.25;;;2.50;;
41546;SDS011;27271;45.412;10.852;2022-07-04T14:35:09;3.00;;;2.47;;
41546;SDS011;27271;45.412;10.852;2022-07-04T14:38:47;4.47;;;2.72;;
41546;SDS011;27271;45.412;10.852;2022-07-04T14:42:12;3.53;;;2.60;;
41546;SDS011;27271;45.412;10.852;2022-07-04T14:45:52;3.78;;;2.70;;
41546;SDS011;27271;45.412;10.852;2022-07-04T14:53:03;3.22;;;2.67;;
41546;SDS011;27271;45.412;10.852;2022-07-04T14:56:32;4.45;;;2.88;;
41546;SDS011;27271;45.412;10.852;2022-07-04T15:00:00;4.13;;;2.97;;
41546;SDS011;27271;45.412;10.852;2022-07-04T15:03:26;14.45;;;2.53;;
41546;SDS011;27271;45.412;10.852;2022-07-04T15:06:51;3.17;;;2.50;;
41546;SDS011;27271;45.412;10.852;2022-07-04T15:10:21;4.97;;;3.03;;
41546;SDS011;27271;45.412;10.852;2022-07-04T15:14:11;4.00;;;2.65;;
41546;SDS011;27271;45.412;10.852;2022-07-04T15:18:01;4.73;;;2.80;;
41546;SDS011;27271;45.412;10.852;2022-07-04T15:21:39;3.55;;;2.75;;
41546;SDS011;27271;45.412;10.852;2022-07-04T15:25:26;3.78;;;2.80;;
41546;SDS011;27271;45.412;10.852;2022-07-04T15:28:54;3.63;;;3.08;;
41546;SDS011;27271;45.412;10.852;2022-07-04T15:32:37;3.33;;;3.03;;
41546;SDS011;27271;45.412;10.852;2022-07-04T15:36:02;3.88;;;2.95;;
41546;SDS011;27271;45.412;10.852;2022-07-04T15:39:30;3.43;;;3.13;;
41546;SDS011;27271;45.412;10.852;2022-07-04T15:43:03;3.53;;;3.22;;
41546;SDS011;27271;45.412;10.852;2022-07-04T15:46:53;3.53;;;2.92;;
41546;SDS011;27271;45.412;10.852;2022-07-04T15:50:32;7.03;;;3.07;;
41546;SDS011;27271;45.412;10.852;2022-07-04T15:54:25;4.30;;;3.50;;
41546;SDS011;27271;45.412;10.852;2022-07-04T15:58:08;4.10;;;3.17;;
41546;SDS011;27271;45.412;10.852;2022-07-04T16:02:31;7.90;;;4.45;;
41546;SDS011;27271;45.412;10.852;2022-07-04T16:06:08;7.53;;;3.67;;
41546;SDS011;27271;45.412;10.852;2022-07-04T16:09:31;4.57;;;3.80;;
41546;SDS011;27271;45.412;10.852;2022-07-04T16:12:59;3.78;;;2.58;;
41546;SDS011;27271;45.412;10.852;2022-07-04T16:16:41;2.78;;;2.58;;
41546;SDS011;27271;45.412;10.852;2022-07-04T16:20:42;2.85;;;2.30;;
41546;SDS011;27271;45.412;10.852;2022-07-04T16:24:39;4.75;;;2.88;;
41546;SDS011;27271;45.412;10.852;2022-07-04T16:28:30;2.40;;;2.20;;
41546;SDS011;27271;45.412;10.852;2022-07-04T16:32:09;3.80;;;2.17;;
41546;SDS011;27271;45.412;10.852;2022-07-04T16:35:42;4.07;;;2.38;;
41546;SDS011;27271;45.412;10.852;2022-07-04T16:39:28;5.78;;;2.58;;
41546;SDS011;27271;45.412;10.852;2022-07-04T16:43:05;1.97;;;1.87;;
41546;SDS011;27271;45.412;10.852;2022-07-04T16:46:33;4.33;;;2.00;;
41546;SDS011;27271;45.412;10.852;2022-07-04T16:50:02;3.10;;;1.85;;
41546;SDS011;27271;45.412;10.852;2022-07-04T16:53:46;3.83;;;1.73;;
41546;SDS011;27271;45.412;10.852;2022-07-04T16:57:15;2.10;;;1.80;;
41546;SDS011;27271;45.412;10.852;2022-07-04T17:04:52;2.15;;;1.75;;
41546;SDS011;27271;45.412;10.852;2022-07-04T17:09:54;2.55;;;2.00;;
41546;SDS011;27271;45.412;10.852;2022-07-04T17:14:39;3.22;;;1.90;;
41546;SDS011;27271;45.412;10.852;2022-07-04T17:18:34;3.17;;;2.30;;
41546;SDS011;27271;45.412;10.852;2022-07-04T17:22:21;3.57;;;3.07;;
41546;SDS011;27271;45.412;10.852;2022-07-04T17:25:49;24.02;;;4.53;;
41546;SDS011;27271;45.412;10.852;2022-07-04T17:29:17;14.85;;;2.45;;
41546;SDS011;27271;45.412;10.852;2022-07-04T17:32:51;11.55;;;1.80;;
41546;SDS011;27271;45.412;10.852;2022-07-04T17:36:18;6.27;;;1.60;;
41546;SDS011;27271;45.412;10.852;2022-07-04T17:40:07;5.63;;;1.60;;
41546;SDS011;27271;45.412;10.852;2022-07-04T17:43:44;10.80;;;2.78;;
41546;SDS011;27271;45.412;10.852;2022-07-04T17:47:28;5.43;;;1.95;;
41546;SDS011;27271;45.412;10.852;2022-07-04T17:51:23;9.23;;;1.92;;
41546;SDS011;27271;45.412;10.852;2022-07-04T18:09:48;3.05;;;1.35;;
41546;SDS011;27271;45.412;10.852;2022-07-04T18:14:50;3.22;;;1.25;;
41546;SDS011;27271;45.412;10.852;2022-07-04T18:24:43;2.42;;;1.40;;
41546;SDS011;27271;45.412;10.852;2022-07-04T18:28:10;2.40;;;1.38;;
41546;SDS011;27271;45.412;10.852;2022-07-04T18:31:54;3.72;;;1.50;;
41546;SDS011;27271;45.412;10.852;2022-07-04T18:35:21;6.13;;;1.73;;
41546;SDS011;27271;45.412;10.852;2022-07-04T18:38:45;5.43;;;2.05;;
41546;SDS011;27271;45.412;10.852;2022-07-04T18:42:08;6.80;;;2.75;;
41546;SDS011;27271;45.412;10.852;2022-07-04T18:46:03;4.40;;;1.40;;
41546;SDS011;27271;45.412;10.852;2022-07-04T18:49:31;3.65;;;1.85;;
41546;SDS011;27271;45.412;10.852;2022-07-04T18:53:23;3.53;;;1.90;;
41546;SDS011;27271;45.412;10.852;2022-07-04T18:56:52;4.28;;;1.98;;
41546;SDS011;27271;45.412;10.852;2022-07-04T19:00:17;5.30;;;1.60;;
41546;SDS011;27271;45.412;10.852;2022-07-04T19:03:57;4.40;;;1.45;;
41546;SDS011;27271;45.412;10.852;2022-07-04T19:07:35;7.57;;;2.50;;
41546;SDS011;27271;45.412;10.852;2022-07-04T19:11:01;4.38;;;1.60;;
41546;SDS011;27271;45.412;10.852;2022-07-04T19:14:29;4.10;;;1.98;;
41546;SDS011;27271;45.412;10.852;2022-07-04T19:18:08;2.67;;;1.42;;
41546;SDS011;27271;45.412;10.852;2022-07-04T19:21:32;3.90;;;1.67;;
41546;SDS011;27271;45.412;10.852;2022-07-04T19:24:56;2.75;;;1.60;;
41546;SDS011;27271;45.412;10.852;2022-07-04T19:28:23;5.10;;;1.45;;
41546;SDS011;27271;45.412;10.852;2022-07-04T19:31:55;3.00;;;1.90;;
41546;SDS011;27271;45.412;10.852;2022-07-04T19:35:35;2.53;;;1.48;;
41546;SDS011;27271;45.412;10.852;2022-07-04T19:39:02;3.05;;;1.48;;
41546;SDS011;27271;45.412;10.852;2022-07-04T19:42:33;4.72;;;1.42;;
41546;SDS011;27271;45.412;10.852;2022-07-04T19:45:58;3.80;;;1.13;;
41546;SDS011;27271;45.412;10.852;2022-07-04T19:49:28;4.07;;;1.23;;
41546;SDS011;27271;45.412;10.852;2022-07-04T19:52:58;1.85;;;1.20;;
41546;SDS011;27271;45.412;10.852;2022-07-04T19:56:37;1.90;;;1.17;;
41546;SDS011;27271;45.412;10.852;2022-07-04T20:00:00;3.67;;;1.33;;
41546;SDS011;27271;45.412;10.852;2022-07-04T20:03:51;2.50;;;1.48;;
41546;SDS011;27271;45.412;10.852;2022-07-04T20:07:15;3.75;;;1.13;;
41546;SDS011;27271;45.412;10.852;2022-07-04T20:10:43;3.30;;;1.20;;
41546;SDS011;27271;45.412;10.852;2022-07-04T20:14:08;2.78;;;1.02;;
41546;SDS011;27271;45.412;10.852;2022-07-04T20:17:33;1.10;;;0.80;;
41546;SDS011;27271;45.412;10.852;2022-07-04T20:21:01;4.38;;;1.25;;
41546;SDS011;27271;45.412;10.852;2022-07-04T20:24:25;2.22;;;1.10;;
41546;SDS011;27271;45.412;10.852;2022-07-04T20:27:49;1.60;;;1.10;;
41546;SDS011;27271;45.412;10.852;2022-07-04T20:31:17;2.58;;;0.95;;
41546;SDS011;27271;45.412;10.852;2022-07-04T20:34:44;4.03;;;1.10;;
41546;SDS011;27271;45.412;10.852;2022-07-04T20:38:15;3.95;;;1.20;;
41546;SDS011;27271;45.412;10.852;2022-07-04T20:41:46;6.57;;;1.45;;
41546;SDS011;27271;45.412;10.852;2022-07-04T20:45:27;3.08;;;1.00;;
41546;SDS011;27271;45.412;10.852;2022-07-04T20:49:09;3.05;;;1.35;;
41546;SDS011;27271;45.412;10.852;2022-07-04T20:52:39;6.85;;;1.60;;
41546;SDS011;27271;45.412;10.852;2022-07-04T20:56:10;4.03;;;1.20;;
41546;SDS011;27271;45.412;10.852;2022-07-04T20:59:43;4.07;;;1.48;;
41546;SDS011;27271;45.412;10.852;2022-07-04T21:03:08;2.95;;;1.38;;
41546;SDS011;27271;45.412;10.852;2022-07-04T21:06:34;2.67;;;1.35;;
41546;SDS011;27271;45.412;10.852;2022-07-04T21:10:03;2.22;;;1.40;;
41546;SDS011;27271;45.412;10.852;2022-07-04T21:13:30;1.95;;;1.70;;
41546;SDS011;27271;45.412;10.852;2022-07-04T21:16:54;2.05;;;1.13;;
41546;SDS011;27271;45.412;10.852;2022-07-04T21:20:21;2.88;;;1.27;;
41546;SDS011;27271;45.412;10.852;2022-07-04T21:23:50;3.53;;;1.98;;
41546;SDS011;27271;45.412;10.852;2022-07-04T21:27:18;5.05;;;1.60;;
41546;SDS011;27271;45.412;10.852;2022-07-04T21:30:43;2.65;;;1.50;;
41546;SDS011;27271;45.412;10.852;2022-07-04T21:34:10;7.25;;;1.90;;
41546;SDS011;27271;45.412;10.852;2022-07-04T21:37:36;4.22;;;1.90;;
41546;SDS011;27271;45.412;10.852;2022-07-04T21:41:03;4.75;;;1.70;;
41546;SDS011;27271;45.412;10.852;2022-07-04T21:44:28;5.45;;;1.90;;
41546;SDS011;27271;45.412;10.852;2022-07-04T21:47:53;5.05;;;2.08;;
41546;SDS011;27271;45.412;10.852;2022-07-04T21:51:19;3.72;;;2.22;;
41546;SDS011;27271;45.412;10.852;2022-07-04T21:54:46;3.13;;;2.25;;
41546;SDS011;27271;45.412;10.852;2022-07-04T21:58:10;5.28;;;2.80;;
41546;SDS011;27271;45.412;10.852;2022-07-04T22:01:38;6.97;;;2.97;;
41546;SDS011;27271;45.412;10.852;2022-07-04T22:05:02;5.60;;;3.17;;
41546;SDS011;27271;45.412;10.852;2022-07-04T22:08:44;5.82;;;3.50;;
41546;SDS011;27271;45.412;10.852;2022-07-04T22:12:11;16.73;;;3.00;;
41546;SDS011;27271;45.412;10.852;2022-07-04T22:15:39;4.70;;;3.17;;
41546;SDS011;27271;45.412;10.852;2022-07-04T22:19:03;8.88;;;3.80;;
41546;SDS011;27271;45.412;10.852;2022-07-04T22:22:30;8.40;;;3.47;;
41546;SDS011;27271;45.412;10.852;2022-07-04T22:26:17;3.55;;;2.90;;
41546;SDS011;27271;45.412;10.852;2022-07-04T22:29:41;4.30;;;3.00;;
41546;SDS011;27271;45.412;10.852;2022-07-04T22:33:08;5.53;;;3.13;;
41546;SDS011;27271;45.412;10.852;2022-07-04T22:36:37;5.97;;;3.25;;
41546;SDS011;27271;45.412;10.852;2022-07-04T22:40:07;11.05;;;3.85;;
41546;SDS011;27271;45.412;10.852;2022-07-04T22:43:31;8.57;;;3.67;;
41546;SDS011;27271;45.412;10.852;2022-07-04T22:46:55;6.45;;;3.53;;
41546;SDS011;27271;45.412;10.852;2022-07-04T22:50:28;5.97;;;3.10;;
41546;SDS011;27271;45.412;10.852;2022-07-04T22:53:52;11.20;;;3.90;;
41546;SDS011;27271;45.412;10.852;2022-07-04T22:57:35;11.60;;;4.63;;
41546;SDS011;27271;45.412;10.852;2022-07-04T23:01:46;7.38;;;4.38;;
41546;SDS011;27271;45.412;10.852;2022-07-04T23:05:00;10.65;;;4.57;;
41546;SDS011;27271;45.412;10.852;2022-07-04T23:08:48;8.35;;;4.60;;
41546;SDS011;27271;45.412;10.852;2022-07-04T23:12:12;8.07;;;4.75;;
41546;SDS011;27271;45.412;10.852;2022-07-04T23:15:37;11.65;;;5.45;;
41546;SDS011;27271;45.412;10.852;2022-07-04T23:19:07;10.13;;;5.25;;
41546;SDS011;27271;45.412;10.852;2022-07-04T23:22:49;6.35;;;4.35;;
41546;SDS011;27271;45.412;10.852;2022-07-04T23:26:12;8.25;;;4.93;;
41546;SDS011;27271;45.412;10.852;2022-07-04T23:29:36;8.73;;;4.10;;
41546;SDS011;27271;45.412;10.852;2022-07-04T23:33:04;12.60;;;5.63;;
41546;SDS011;27271;45.412;10.852;2022-07-04T23:36:28;12.15;;;5.55;;
41546;SDS011;27271;45.412;10.852;2022-07-04T23:39:51;9.98;;;5.55;;
41546;SDS011;27271;45.412;10.852;2022-07-04T23:43:38;10.02;;;5.40;;
41546;SDS011;27271;45.412;10.852;2022-07-04T23:47:03;8.82;;;4.90;;
41546;SDS011;27271;45.412;10.852;2022-07-04T23:50:27;10.70;;;5.03;;
41546;SDS011;27271;45.412;10.852;2022-07-04T23:53:52;7.70;;;4.55;;
41546;SDS011;27271;45.412;10.852;2022-07-04T23:57:19;11.27;;;5.90;;
